Kaspiysk, Russia
Current Conditions -  °F | °C
As of 10:00 AM on Friday 28 Nov 2014 (Local Time) from URML Reporting Station
Haze Haze  
Wind Chill: 37°   Ceiling: 1600
Heat Index: 41°   Visibility: 1.5mi
Dew Point: 41°   Wind: 7mph
Humidity: 100%   Direction: 50°NE
Pressure: 30.33"   Gusts: NA
Location:  42.88°N, 47.64°E
Report Text: URML 280700Z 05003MPS 030V090 2500 BR OVC016 05/05 Q1027 NOSIGRMK QFE770/1027
Loading
Personal Weather Stations






























Interactive Weather Map New forecast layout! Learn more

10-Day Weather Forecast

Advertisements
Track Severe Weather on mobile